logo
Search for airport 
image banner adimage banner adimage banner ad
image banner ad

EHLU - L8-P (Oil Platform)

Located in , Netherlands

ICAO - , IATA -

Data provided by Airmate  

General information

Coordinates: N53°38'24" E4°33'45"
Elevation is feet MSL.
 
View others Airports in Noord-Holland

Operational data

Special qualification required
Current time UTC:
Current local time:
Weather at : EHMG - L9-Ff-1 (Oil Platform) ( 26 km )
METAR: EHMG 301925Z AUTO 23011KT 9999 FEW003 SCT005 BKN006 14/12 Q1008
View NOTAMs / SUP AIP / TFR affecting this airport [VIEW]
Communications frequencies: [VIEW]

Runways:

Airport contact information

Address: Netherlands

Satellite view of EHLU